Time;durP1;ratioP1;P1;durP2;ratioP2;P2;SDS_P1;SDS_P2;PMS_P1;PMS_P2;Temp;Humidity;BMP_temperature;BMP_pressure;BME280_temperature;BME280_humidity;BME280_pressure;Samples;Min_cycle;Max_cycle;Signal;HPM_P1;HPM_P2
2023/01/31 00:01:25;;;;;;;17.17;3.27;;;2.50;99.90;;;;;;4881973;29;19970;-87
2023/01/31 00:04:13;;;;;;;24.27;4.17;;;2.90;99.90;;;;;;4882941;29;20059;-86
2023/01/31 00:06:59;;;;;;;18.43;3.27;;;3.00;99.90;;;;;;4915954;29;20108;-87
2023/01/31 00:09:40;;;;;;;23.03;3.33;;;2.90;99.90;;;;;;4917112;23;20019;-87
2023/01/31 00:12:06;;;;;;;28.07;4.07;;;2.60;99.90;;;;;;4902204;29;20507;-86
2023/01/31 00:14:38;;;;;;;19.10;3.77;;;2.70;99.90;;;;;;4900940;29;20130;-87
2023/01/31 00:17:03;;;;;;;21.07;3.30;;;4.70;99.90;;;;;;4925910;23;20508;-87
2023/01/31 00:19:29;;;;;;;20.77;3.17;;;2.50;99.90;;;;;;4918151;29;20056;-87
2023/01/31 00:21:56;;;;;;;21.97;3.43;;;1.80;99.90;;;;;;4899458;29;20055;-86
2023/01/31 00:24:40;;;;;;;21.60;3.90;;;;;;;;;;4901946;29;20052;-87
2023/01/31 00:27:07;;;;;;;20.67;3.57;;;2.80;99.90;;;;;;4919141;29;20068;-87
2023/01/31 00:29:33;;;;;;;18.83;3.20;;;2.50;99.90;;;;;;4901636;29;20143;-86
2023/01/31 00:32:02;;;;;;;15.23;3.03;;;4.00;99.90;;;;;;4901905;29;20136;-87
2023/01/31 00:34:28;;;;;;;19.13;3.90;;;2.80;99.90;;;;;;4907987;23;20080;-87
2023/01/31 00:37:03;;;;;;;24.07;3.63;;;2.10;99.90;;;;;;4915008;29;20085;-86
2023/01/31 00:39:28;;;;;;;19.27;3.60;;;2.40;99.90;;;;;;4883132;29;20476;-87
2023/01/31 00:42:03;;;;;;;21.03;3.67;;;3.00;99.90;;;;;;4903179;29;20123;-86
2023/01/31 00:44:29;;;;;;;25.13;3.87;;;2.60;99.90;;;;;;4914349;29;20050;-86
2023/01/31 00:47:00;;;;;;;18.70;3.00;;;2.90;99.90;;;;;;4918483;29;20040;-87
2023/01/31 00:49:41;;;;;;;22.27;3.73;;;3.20;99.90;;;;;;4918671;29;20535;-87
2023/01/31 00:52:06;;;;;;;17.63;3.57;;;2.00;99.90;;;;;;4918094;29;20158;-87
2023/01/31 00:54:32;;;;;;;22.43;3.30;;;2.20;99.90;;;;;;4901382;29;20132;-87
2023/01/31 00:56:58;;;;;;;22.07;4.67;;;4.60;99.90;;;;;;4917394;29;20054;-87
2023/01/31 00:59:34;;;;;;;13.07;2.73;;;2.00;99.90;;;;;;4917908;29;20048;-86
2023/01/31 01:02:00;;;;;;;17.70;3.50;;;4.30;99.90;;;;;;4901156;29;20484;-87
2023/01/31 01:04:34;;;;;;;21.10;3.37;;;2.30;99.90;;;;;;4900648;29;20175;-87
2023/01/31 01:07:12;;;;;;;25.13;3.77;;;2.20;99.90;;;;;;4900520;29;20531;-86
2023/01/31 01:09:37;;;;;;;15.00;3.30;;;3.90;99.90;;;;;;4901456;29;20051;-87
2023/01/31 01:12:09;;;;;;;19.50;3.20;;;2.40;99.90;;;;;;4917140;29;20107;-86
2023/01/31 01:14:35;;;;;;;19.40;3.30;;;2.30;99.90;;;;;;4903794;29;20060;-87
2023/01/31 01:17:13;;;;;;;20.10;3.60;;;2.40;99.90;;;;;;4910156;29;20044;-87
2023/01/31 01:19:48;;;;;;;18.10;3.00;;;1.80;99.90;;;;;;4904294;29;20032;-86
2023/01/31 01:22:15;;;;;;;20.80;3.47;;;2.20;99.90;;;;;;4912405;29;20056;-87
2023/01/31 01:25:02;;;;;;;21.43;3.80;;;2.50;99.90;;;;;;4921909;29;20084;-87
2023/01/31 01:27:31;;;;;;;20.80;3.27;;;2.20;99.90;;;;;;4901194;29;20103;-87
2023/01/31 01:30:46;;;;;;;19.73;3.00;;;1.60;99.90;;;;;;4932505;23;20040;-87
2023/01/31 01:33:38;;;;;;;21.63;3.63;;;1.30;99.90;;;;;;4903265;29;20052;-87
2023/01/31 01:36:24;;;;;;;17.37;3.40;;;1.60;99.90;;;;;;4917433;29;20040;-87
2023/01/31 01:38:51;;;;;;;20.73;3.50;;;2.70;99.90;;;;;;4916317;29;20513;-86
2023/01/31 01:41:21;;;;;;;19.23;3.10;;;2.80;99.90;;;;;;4900702;29;20048;-87
2023/01/31 01:44:03;;;;;;;16.90;3.67;;;2.40;99.90;;;;;;4900192;29;20047;-87
2023/01/31 01:46:58;;;;;;;25.07;3.80;;;3.30;99.90;;;;;;4900411;29;20052;-86
2023/01/31 01:49:33;;;;;;;16.77;2.83;;;1.60;99.90;;;;;;4900424;29;20048;-87
2023/01/31 01:52:02;;;;;;;22.63;4.30;;;1.70;99.90;;;;;;4970136;23;20048;-87
2023/01/31 01:54:59;;;;;;;22.43;4.03;;;1.90;99.90;;;;;;4899731;29;20044;-87
2023/01/31 01:57:34;;;;;;;18.33;3.40;;;1.40;99.90;;;;;;4830405;29;20071;-87
2023/01/31 02:00:13;;;;;;;17.17;3.27;;;1.40;99.90;;;;;;4848077;29;20050;-87
2023/01/31 02:02:48;;;;;;;19.50;3.20;;;1.50;99.90;;;;;;4905700;23;20119;-86
2023/01/31 02:05:26;;;;;;;16.13;3.13;;;1.20;99.90;;;;;;4897123;29;20486;-87
2023/01/31 02:08:00;;;;;;;26.87;3.83;;;1.30;99.90;;;;;;4880471;29;20044;-87
2023/01/31 02:11:05;;;;;;;19.55;3.10;;;1.10;99.90;;;;;;4880733;29;20052;-87
2023/01/31 02:13:38;;;;;;;26.07;3.30;;;2.70;99.90;;;;;;4880905;29;20048;-87
2023/01/31 02:16:22;;;;;;;19.17;3.70;;;1.60;99.90;;;;;;4880091;29;20079;-87
2023/01/31 02:18:51;;;;;;;24.92;3.15;;;2.50;99.90;;;;;;4897475;29;20374;-87
2023/01/31 02:22:05;;;;;;;19.60;3.43;;;2.80;99.90;;;;;;4880659;29;20551;-86
2023/01/31 02:25:21;;;;;;;27.00;4.03;;;1.20;99.90;;;;;;4897843;29;20192;-86
2023/01/31 02:28:20;;;;;;;24.27;3.47;;;1.20;99.90;;;;;;4897724;29;20084;-87
2023/01/31 02:31:29;;;;;;;20.33;3.10;;;1.40;99.90;;;;;;4898655;29;20135;-87
2023/01/31 02:34:34;;;;;;;25.13;3.87;;;1.30;99.90;;;;;;4900333;29;20188;-87
2023/01/31 02:37:46;;;;;;;19.77;3.15;;;1.40;99.90;;;;;;4888095;29;20137;-88
2023/01/31 02:40:43;;;;;;;19.73;3.10;;;1.70;99.90;;;;;;4881581;29;20091;-86
2023/01/31 02:43:33;;;;;;;21.47;2.90;;;1.40;99.90;;;;;;4895718;29;20123;-86
2023/01/31 02:46:30;;;;;;;19.87;3.03;;;1.60;99.90;;;;;;4879934;29;20063;-86
2023/01/31 02:49:41;;;;;;;20.40;3.73;;;1.50;99.90;;;;;;4969479;23;20052;-86
2023/01/31 02:52:49;;;;;;;16.73;2.97;;;2.20;99.90;;;;;;4904921;23;20052;-87
2023/01/31 02:58:26;;;;;;;19.60;3.23;;;1.80;99.90;;;;;;4915619;29;20074;-86
2023/01/31 03:00:55;;;;;;;19.13;3.10;;;1.70;99.90;;;;;;5007751;23;20044;-86
2023/01/31 03:03:25;;;;;;;17.43;3.30;;;1.90;99.90;;;;;;4935372;29;20048;-86
2023/01/31 03:06:22;;;;;;;15.33;3.80;;;2.50;99.90;;;;;;4918153;29;20492;-86
2023/01/31 03:11:13;;;;;;;19.50;3.43;;;2.20;99.90;;;;;;4918493;23;20508;-86
2023/01/31 03:14:11;;;;;;;19.70;3.07;;;4.50;99.90;;;;;;4899968;29;20048;-86
2023/01/31 03:20:04;;;;;;;19.60;3.53;;;2.80;99.90;;;;;;4915632;29;20123;-86
2023/01/31 03:22:40;;;;;;;24.33;3.70;;;2.70;99.90;;;;;;4897737;29;20472;-86
2023/01/31 03:25:09;;;;;;;21.47;3.50;;;1.70;99.90;;;;;;4879814;29;20049;-86
2023/01/31 03:27:36;;;;;;;19.37;3.00;;;2.90;99.90;;;;;;4897859;29;20048;-86
2023/01/31 03:30:30;;;;;;;22.33;3.47;;;3.60;99.90;;;;;;4880194;29;20037;-86
2023/01/31 03:33:11;;;;;;;14.98;2.85;;;2.60;99.90;;;;;;4896194;29;20036;-86
2023/01/31 03:35:49;;;;;;;14.53;2.80;;;3.90;99.90;;;;;;4897335;29;20136;-86
2023/01/31 03:38:36;;;;;;;16.70;3.57;;;2.60;99.90;;;;;;4897982;23;20044;-86
2023/01/31 03:41:30;;;;;;;19.40;3.27;;;2.50;99.90;;;;;;4916002;29;20060;-86
2023/01/31 03:44:19;;;;;;;;;;;3.90;99.90;;;;;;4899314;29;20044;-86
2023/01/31 03:47:08;;;;;;;14.83;2.83;;;1.60;99.90;;;;;;4898475;29;20284;-86
2023/01/31 03:49:49;;;;;;;17.33;3.63;;;4.10;99.90;;;;;;4899401;29;20131;-86
2023/01/31 03:56:01;;;;;;;13.27;2.70;;;2.40;99.90;;;;;;4915648;29;20606;-86
2023/01/31 03:58:52;;;;;;;15.90;2.80;;;3.40;99.90;;;;;;4902453;29;20517;-86
2023/01/31 04:01:21;;;;;;;17.20;3.30;;;2.90;99.90;;;;;;4901690;29;20087;-86
2023/01/31 04:06:32;;;;;;;16.57;2.90;;;2.90;99.90;;;;;;4922699;23;20052;-86
2023/01/31 04:09:15;;;;;;;16.30;3.27;;;2.70;99.90;;;;;;4920712;29;20051;-86
2023/01/31 04:11:49;;;;;;;17.00;3.17;;;3.30;99.90;;;;;;4902674;29;20099;-86
2023/01/31 04:14:38;;;;;;;15.73;3.08;;;4.00;99.90;;;;;;4918725;29;20044;-87
2023/01/31 04:17:06;;;;;;;16.47;3.00;;;4.00;99.90;;;;;;4885047;29;20088;-86
2023/01/31 04:19:31;;;;;;;18.63;3.47;;;4.20;99.90;;;;;;4903870;29;20044;-87
2023/01/31 04:21:57;;;;;;;14.03;2.87;;;4.90;99.90;;;;;;4902497;29;20064;-87
2023/01/31 04:24:32;;;;;;;16.67;2.90;;;3.10;99.90;;;;;;4892779;29;20044;-87
2023/01/31 04:26:57;;;;;;;17.87;2.83;;;3.90;99.90;;;;;;4901398;29;20045;-86
2023/01/31 04:29:25;;;;;;;13.23;3.23;;;3.10;99.90;;;;;;4882931;29;20564;-87
2023/01/31 04:31:51;;;;;;;18.93;3.37;;;4.00;99.90;;;;;;4900025;29;20040;-87
2023/01/31 04:34:32;;;;;;;17.47;3.33;;;3.30;99.90;;;;;;4905675;23;20460;-87
2023/01/31 04:36:58;;;;;;;21.23;3.53;;;2.90;99.90;;;;;;4933103;29;20067;-87
2023/01/31 04:39:29;;;;;;;22.90;3.40;;;2.30;99.90;;;;;;4929767;29;20079;-87
2023/01/31 04:42:10;;;;;;;14.33;3.47;;;3.90;99.90;;;;;;4904651;28;20102;-86
2023/01/31 04:44:39;;;;;;;16.80;3.63;;;3.00;99.90;;;;;;4904898;29;20056;-86
2023/01/31 04:47:11;;;;;;;20.77;3.30;;;4.30;99.90;;;;;;4901537;29;20097;-87
2023/01/31 04:55:38;;;;;;;21.07;4.00;;;3.40;99.90;;;;;;4916830;29;20367;-86
2023/01/31 04:58:06;;;;;;;21.67;4.03;;;3.30;99.90;;;;;;4900680;29;20501;-87
2023/01/31 05:00:53;;;;;;;14.93;4.10;;;4.10;99.90;;;;;;4918289;29;20036;-87
2023/01/31 05:03:27;;;;;;;16.97;3.17;;;5.20;99.90;;;;;;4900942;29;20068;-87
2023/01/31 05:06:11;;;;;;;17.63;3.47;;;5.20;99.90;;;;;;4899896;29;20054;-87
2023/01/31 05:08:48;;;;;;;20.10;3.58;;;3.90;99.90;;;;;;4900097;29;20044;-86
2023/01/31 05:11:14;;;;;;;18.90;3.40;;;5.60;99.90;;;;;;4900843;29;20056;-87
2023/01/31 05:13:44;;;;;;;17.70;4.10;;;3.40;99.90;;;;;;4901005;29;20039;-87
2023/01/31 05:16:13;;;;;;;16.97;3.30;;;4.60;99.90;;;;;;4900873;29;20048;-86
2023/01/31 05:18:54;;;;;;;20.33;4.30;;;4.90;99.90;;;;;;4917313;29;20044;-87
2023/01/31 05:23:54;;;;;;;17.73;3.90;;;3.70;99.90;;;;;;4921295;23;20067;-86
2023/01/31 05:26:41;;;;;;;19.13;4.33;;;5.70;99.90;;;;;;4900301;29;20060;-86
2023/01/31 05:29:07;;;;;;;18.07;3.80;;;4.10;99.90;;;;;;4917908;29;20040;-86
2023/01/31 05:31:38;;;;;;;22.40;4.60;;;3.40;99.90;;;;;;4900334;29;20536;-87
2023/01/31 05:34:14;;;;;;;18.00;3.90;;;3.80;99.90;;;;;;4917479;29;20107;-86
2023/01/31 05:36:42;;;;;;;18.93;4.70;;;5.00;99.90;;;;;;4900633;29;20048;-86
2023/01/31 05:39:08;;;;;;;24.00;4.43;;;5.60;99.90;;;;;;4899738;29;20083;-87
2023/01/31 05:41:49;;;;;;;22.90;4.53;;;5.30;99.90;;;;;;4900604;29;20091;-86
2023/01/31 05:44:39;;;;;;;15.60;3.70;;;3.20;99.90;;;;;;4917527;29;20046;-86
2023/01/31 05:47:05;;;;;;;25.13;4.23;;;6.00;99.90;;;;;;4905832;23;20060;-86
2023/01/31 05:49:36;;;;;;;23.03;5.17;;;4.50;99.90;;;;;;4900056;29;20124;-86
2023/01/31 05:52:05;;;;;;;24.43;4.93;;;3.90;99.90;;;;;;4927831;23;20040;-87
2023/01/31 05:55:40;;;;;;;21.33;4.20;;;4.00;99.90;;;;;;4900126;29;20055;-87
2023/01/31 05:58:05;;;;;;;27.98;4.60;;;5.10;99.90;;;;;;4902079;29;20056;-87
2023/01/31 06:00:31;;;;;;;19.33;5.53;;;5.00;99.90;;;;;;4900603;29;20059;-87
2023/01/31 06:03:15;;;;;;;24.37;5.33;;;3.50;99.90;;;;;;4907085;23;20052;-87
2023/01/31 06:05:59;;;;;;;19.40;5.28;;;5.30;99.90;;;;;;4902137;29;20071;-87
2023/01/31 06:11:17;;;;;;;26.23;5.90;;;3.90;99.90;;;;;;4924679;23;20044;-87
2023/01/31 06:13:48;;;;;;;23.87;5.20;;;3.70;99.90;;;;;;4900798;29;20135;-87
2023/01/31 06:16:17;;;;;;;24.20;5.30;;;4.80;99.90;;;;;;4953070;23;20052;-88
2023/01/31 06:19:34;;;;;;;21.13;5.13;;;3.80;99.90;;;;;;4903799;29;20044;-88
2023/01/31 06:26:39;;;;;;;29.30;6.13;;;4.20;99.90;;;;;;4876964;29;20550;-87
2023/01/31 06:29:10;;;;;;;22.53;6.17;;;2.90;99.90;;;;;;4860440;29;20097;-87
2023/01/31 06:31:57;;;;;;;20.80;6.17;;;6.10;99.90;;;;;;4945380;23;20044;-87
2023/01/31 06:34:28;;;;;;;19.67;5.77;;;4.10;99.90;;;;;;4899284;29;20048;-88
2023/01/31 06:37:09;;;;;;;24.80;6.80;;;4.40;99.90;;;;;;4899632;29;20118;-88
2023/01/31 06:39:44;;;;;;;27.23;7.20;;;4.80;99.90;;;;;;4916653;29;20048;-87
2023/01/31 06:42:34;;;;;;;20.10;7.33;;;4.10;99.90;;;;;;5163645;23;20499;-83
2023/01/31 06:45:12;;;;;;;29.30;7.30;;;3.50;99.90;;;;;;4898386;29;20128;-85
2023/01/31 06:47:40;;;;;;;28.37;7.80;;;5.40;99.90;;;;;;4915885;29;20055;-83
2023/01/31 06:50:21;;;;;;;27.20;8.17;;;4.70;99.90;;;;;;4898808;29;20063;-83
2023/01/31 06:52:53;;;;;;;27.33;7.47;;;4.70;99.90;;;;;;4894995;29;20092;-83
2023/01/31 06:56:12;;;;;;;22.90;7.00;;;4.70;99.90;;;;;;4901605;29;20504;-83
2023/01/31 06:58:49;;;;;;;26.63;8.00;;;5.70;99.90;;;;;;4803209;29;20104;-84
2023/01/31 07:02:44;;;;;;;23.93;7.43;;;4.50;99.90;;;;;;4897334;29;20143;-84
2023/01/31 07:09:01;;;;;;;28.80;8.37;;;5.30;99.90;;;;;;4851058;23;20533;-84
2023/01/31 07:11:39;;;;;;;23.63;7.43;;;4.50;99.90;;;;;;4915718;29;20099;-84
2023/01/31 07:14:30;;;;;;;27.57;8.03;;;5.00;99.90;;;;;;4898735;29;20094;-83
2023/01/31 07:17:13;;;;;;;30.67;7.87;;;6.10;99.90;;;;;;4898430;29;20528;-83
2023/01/31 07:19:58;;;;;;;28.40;7.47;;;4.90;99.90;;;;;;4899097;29;20054;-83
2023/01/31 07:22:24;;;;;;;27.00;7.50;;;5.10;99.90;;;;;;4899306;29;20408;-83
2023/01/31 07:24:56;;;;;;;22.73;7.53;;;4.80;99.90;;;;;;4897877;29;20048;-83
2023/01/31 07:27:40;;;;;;;25.77;6.70;;;4.80;99.90;;;;;;4899507;29;20044;-83
2023/01/31 07:30:06;;;;;;;32.40;8.25;;;5.40;99.90;;;;;;4898974;29;20174;-83
2023/01/31 07:32:33;;;;;;;21.33;7.00;;;5.10;99.90;;;;;;4932476;29;20040;-84
2023/01/31 07:35:14;;;;;;;23.60;6.37;;;6.60;99.90;;;;;;4903673;29;20062;-85
2023/01/31 07:37:42;;;;;;;19.57;6.13;;;5.30;99.90;;;;;;4902434;29;20165;-84
2023/01/31 07:40:23;;;;;;;19.57;5.10;;;4.30;99.90;;;;;;4903353;29;20413;-84
2023/01/31 07:43:04;;;;;;;22.57;6.10;;;6.40;99.90;;;;;;4918724;29;20076;-83
2023/01/31 07:45:51;;;;;;;16.90;5.33;;;5.00;99.90;;;;;;4900889;29;20071;-84
2023/01/31 07:48:23;;;;;;;21.30;5.57;;;4.90;99.90;;;;;;4909635;29;20410;-84
2023/01/31 07:51:09;;;;;;;20.63;5.40;;;4.10;99.90;;;;;;4902856;29;20099;-84
2023/01/31 07:53:51;;;;;;;19.23;5.23;;;5.60;99.90;;;;;;4919851;29;20048;-83
2023/01/31 07:56:19;;;;;;;21.10;5.67;;;6.60;99.90;;;;;;4928780;29;20198;-83
2023/01/31 07:58:54;;;;;;;21.00;5.67;;;4.40;99.90;;;;;;4902721;29;20123;-83
2023/01/31 08:04:43;;;;;;;22.03;5.30;;;7.20;99.90;;;;;;4901508;29;20052;-83
2023/01/31 08:07:27;;;;;;;21.10;5.90;;;5.60;99.90;;;;;;4918548;29;20040;-83
2023/01/31 08:10:16;;;;;;;26.10;5.23;;;7.40;99.90;;;;;;4910726;29;20124;-83
2023/01/31 08:12:45;;;;;;;17.10;4.53;;;5.60;99.90;;;;;;4918509;29;20044;-83
2023/01/31 08:15:29;;;;;;;23.07;5.00;;;5.20;99.90;;;;;;4901647;29;20056;-82
2023/01/31 08:18:12;;;;;;;21.27;5.40;;;6.80;99.90;;;;;;4917533;29;20064;-82
2023/01/31 08:21:10;;;;;;;19.95;5.03;;;5.30;99.90;;;;;;4901325;29;20052;-82
2023/01/31 08:23:53;;;;;;;25.77;5.67;;;4.70;99.90;;;;;;4901937;29;20052;-82
2023/01/31 08:26:21;;;;;;;19.80;4.87;;;6.80;99.90;;;;;;4918806;29;20083;-84
2023/01/31 08:28:59;;;;;;;20.10;4.80;;;5.10;99.90;;;;;;4918165;29;20048;-84
2023/01/31 08:31:39;;;;;;;20.63;5.30;;;5.60;99.90;;;;;;4901816;29;20052;-83
2023/01/31 08:34:26;;;;;;;17.80;4.67;;;7.30;99.90;;;;;;4900716;29;20047;-83
2023/01/31 08:36:55;;;;;;;15.87;4.93;;;5.60;99.90;;;;;;4901557;29;20400;-83
2023/01/31 08:39:21;;;;;;;17.67;4.97;;;7.60;99.90;;;;;;4901481;29;20075;-83
2023/01/31 08:42:02;;;;;;;21.53;5.83;;;7.40;99.90;;;;;;4900978;29;20481;-83
2023/01/31 08:44:27;;;;;;;18.83;5.20;;;5.70;99.90;;;;;;4900589;29;20063;-84
2023/01/31 08:47:06;;;;;;;20.73;5.23;;;7.30;99.90;;;;;;4930089;29;20040;-83
2023/01/31 08:49:35;;;;;;;19.47;4.97;;;7.30;99.90;;;;;;4901242;29;20052;-83
2023/01/31 08:52:13;;;;;;;24.10;5.37;;;5.80;99.90;;;;;;4900088;29;20056;-84
2023/01/31 08:54:51;;;;;;;18.40;4.83;;;6.30;99.90;;;;;;4901054;29;20519;-85
2023/01/31 08:57:23;;;;;;;19.43;5.37;;;5.30;99.90;;;;;;4901292;29;20099;-84
2023/01/31 08:59:49;;;;;;;18.37;5.13;;;5.30;99.90;;;;;;4918060;29;20051;-83
2023/01/31 09:02:49;;;;;;;;;;;;;;;;;;;;;
2023/01/31 09:05:39;;;;;;;21.23;5.80;;;6.50;99.90;;;;;;4897305;29;20062;-83
2023/01/31 09:08:14;;;;;;;18.43;5.67;;;5.30;99.90;;;;;;4917977;29;20052;-82
2023/01/31 09:10:40;;;;;;;20.07;5.63;;;5.90;99.90;;;;;;4899896;29;20055;-83
2023/01/31 09:13:18;;;;;;;19.80;5.57;;;5.30;99.90;;;;;;4917685;29;20401;-82
2023/01/31 09:15:44;;;;;;;22.80;6.57;;;5.30;99.90;;;;;;4917960;29;20507;-82
2023/01/31 09:18:15;;;;;;;21.00;5.77;;;5.40;99.90;;;;;;4916991;29;20048;-82
2023/01/31 09:20:40;;;;;;;18.53;5.67;;;6.90;99.90;;;;;;4900907;29;20063;-82
2023/01/31 09:23:24;;;;;;;20.83;6.07;;;5.30;99.90;;;;;;4922316;29;20059;-82
2023/01/31 09:26:05;;;;;;;24.40;6.75;;;5.70;99.90;;;;;;4920577;29;20174;-82
2023/01/31 09:28:31;;;;;;;19.33;5.83;;;5.40;99.90;;;;;;4900699;29;20044;-84
2023/01/31 09:31:11;;;;;;;21.00;5.50;;;5.40;99.90;;;;;;4917341;29;20562;-82
2023/01/31 09:33:49;;;;;;;17.03;5.67;;;5.40;99.90;;;;;;4901282;29;20139;-83
2023/01/31 09:36:18;;;;;;;17.53;5.27;;;6.30;99.90;;;;;;4900189;29;20514;-84
2023/01/31 09:38:47;;;;;;;20.50;6.43;;;7.50;99.90;;;;;;4916553;29;20040;-84
2023/01/31 09:41:35;;;;;;;18.67;5.10;;;5.20;99.90;;;;;;4917081;29;20071;-84
2023/01/31 09:45:30;;;;;;;21.17;6.10;;;6.70;99.90;;;;;;4918850;29;20044;-84
2023/01/31 09:47:53;;;;;;;20.33;5.23;;;7.30;99.90;;;;;;4912510;29;20048;-84
2023/01/31 09:50:30;;;;;;;18.17;5.10;;;6.30;99.90;;;;;;4900623;29;20044;-84
2023/01/31 09:52:57;;;;;;;16.47;5.80;;;7.50;99.90;;;;;;4916448;29;20048;-84
2023/01/31 09:55:50;;;;;;;16.63;5.50;;;8.00;99.90;;;;;;4900102;29;20091;-83
2023/01/31 09:58:40;;;;;;;16.73;5.13;;;6.00;99.90;;;;;;4917033;29;20468;-84
2023/01/31 10:01:43;;;;;;;19.47;4.77;;;6.10;99.90;;;;;;4929244;29;20076;-83
2023/01/31 10:04:28;;;;;;;17.07;4.87;;;6.00;99.90;;;;;;4899679;29;20051;-84
2023/01/31 10:07:10;;;;;;;16.50;4.73;;;6.50;99.90;;;;;;4900764;29;20047;-83
2023/01/31 10:10:12;;;;;;;19.67;4.87;;;5.20;99.90;;;;;;4898528;29;20412;-84
2023/01/31 10:13:02;;;;;;;17.63;4.63;;;6.20;99.90;;;;;;4862267;29;20063;-84
2023/01/31 10:16:10;;;;;;;20.00;4.87;;;5.80;99.90;;;;;;4899503;29;20052;-84
2023/01/31 10:18:54;;;;;;;16.33;4.53;;;7.30;99.90;;;;;;4916432;29;20408;-84
2023/01/31 10:21:38;;;;;;;18.08;4.55;;;6.90;99.90;;;;;;4898366;29;20048;-84
2023/01/31 10:24:49;;;;;;;15.40;3.60;;;6.30;99.90;;;;;;4898498;29;20048;-84
2023/01/31 10:27:32;;;;;;;21.20;5.00;;;6.30;99.90;;;;;;4871183;29;20087;-84
2023/01/31 10:30:19;;;;;;;24.53;4.93;;;6.30;99.90;;;;;;4915657;29;20548;-84
2023/01/31 10:32:50;;;;;;;17.37;4.00;;;7.50;99.90;;;;;;4916140;29;20127;-84
2023/01/31 10:35:57;;;;;;;18.00;4.13;;;6.00;99.90;;;;;;4915216;29;20048;-84
2023/01/31 10:39:23;;;;;;;15.57;4.90;;;6.30;99.90;;;;;;4858632;29;20560;-84
2023/01/31 10:42:11;;;;;;;16.83;4.20;;;7.30;99.90;;;;;;4805201;29;20081;-84
2023/01/31 10:45:21;;;;;;;17.77;4.33;;;6.20;99.90;;;;;;4805526;29;20176;-85
2023/01/31 10:48:27;;;;;;;18.37;4.70;;;7.80;99.90;;;;;;4780776;29;20073;-85
2023/01/31 10:51:43;;;;;;;16.70;4.40;;;6.50;99.90;;;;;;4914303;29;20052;-85
2023/01/31 10:54:41;;;;;;;15.67;4.73;;;7.60;99.90;;;;;;4900039;29;20052;-83
2023/01/31 10:57:07;;;;;;;21.47;4.20;;;6.40;99.90;;;;;;4914567;29;20044;-83
2023/01/31 10:59:37;;;;;;;20.30;4.70;;;6.40;99.90;;;;;;4919106;29;20040;-83
2023/01/31 11:02:04;;;;;;;17.90;4.43;;;6.70;99.90;;;;;;4915513;29;20048;-83
2023/01/31 11:04:33;;;;;;;19.50;4.33;;;6.40;99.90;;;;;;4915516;29;20437;-83
2023/01/31 11:07:01;;;;;;;21.90;5.00;;;6.40;99.90;;;;;;4920137;29;20047;-83
2023/01/31 11:09:31;;;;;;;19.23;5.43;;;6.30;99.90;;;;;;4883492;29;1065657;-82
2023/01/31 11:11:59;;;;;;;20.23;5.77;;;6.30;99.90;;;;;;4903131;29;20464;-83
2023/01/31 11:14:25;;;;;;;21.47;5.37;;;6.30;99.90;;;;;;4903537;29;20055;-83
2023/01/31 11:17:20;;;;;;;19.17;5.20;;;6.30;99.90;;;;;;4902235;29;20493;-83
2023/01/31 11:19:52;;;;;;;18.57;5.40;;;6.20;99.90;;;;;;4901109;29;20147;-81
2023/01/31 11:22:29;;;;;;;20.30;5.13;;;6.20;99.90;;;;;;4902550;29;20047;-82
2023/01/31 11:24:56;;;;;;;17.30;5.17;;;6.20;99.90;;;;;;4900525;29;20055;-82
2023/01/31 11:27:38;;;;;;;15.93;5.23;;;6.20;99.90;;;;;;4901115;29;20085;-83
2023/01/31 11:30:06;;;;;;;20.23;4.73;;;6.20;99.90;;;;;;4900251;29;20095;-82
2023/01/31 11:32:35;;;;;;;15.27;5.50;;;6.20;99.90;;;;;;4884383;29;20113;-82
2023/01/31 11:35:05;;;;;;;17.03;5.00;;;6.10;99.90;;;;;;4883821;29;20055;-82
2023/01/31 11:37:32;;;;;;;20.87;4.80;;;6.20;99.90;;;;;;4883511;29;20052;-82
2023/01/31 11:40:21;;;;;;;17.57;5.07;;;6.10;99.90;;;;;;4900584;29;20056;-83
2023/01/31 11:42:58;;;;;;;17.97;5.40;;;6.20;99.90;;;;;;4900781;29;20108;-83
2023/01/31 11:45:29;;;;;;;15.93;5.43;;;6.20;99.90;;;;;;4900278;29;20403;-85
2023/01/31 11:48:19;;;;;;;16.90;5.73;;;6.20;99.90;;;;;;4883867;29;20045;-84
2023/01/31 11:50:51;;;;;;;18.83;6.23;;;6.20;99.90;;;;;;4873301;29;20063;-82
2023/01/31 11:53:28;;;;;;;23.67;6.10;;;6.20;99.90;;;;;;4889896;29;20036;-84
2023/01/31 11:55:57;;;;;;;23.77;5.60;;;6.20;99.90;;;;;;4899381;29;20048;-83
2023/01/31 11:58:38;;;;;;;22.53;6.10;;;6.20;99.90;;;;;;4917899;29;20071;-83
2023/01/31 12:01:20;;;;;;;22.33;6.03;;;6.20;99.90;;;;;;4901160;29;20056;-83
2023/01/31 12:03:54;;;;;;;27.53;8.37;;;6.30;99.90;;;;;;4901693;29;20103;-83
2023/01/31 12:06:32;;;;;;;19.23;6.35;;;6.30;99.90;;;;;;4917254;29;20100;-83
2023/01/31 12:08:59;;;;;;;20.87;6.40;;;6.40;99.90;;;;;;4917914;29;20079;-83
2023/01/31 12:11:33;;;;;;;19.77;5.53;;;6.80;99.90;;;;;;4913513;29;20127;-83
2023/01/31 12:14:04;;;;;;;16.87;5.30;;;6.40;99.90;;;;;;4917721;29;20047;-82
2023/01/31 12:16:30;;;;;;;18.03;5.50;;;6.50;99.90;;;;;;4918436;29;20058;-83
2023/01/31 12:19:10;;;;;;;20.80;6.13;;;6.50;99.90;;;;;;4899113;29;20479;-83
2023/01/31 12:22:24;;;;;;;21.27;5.70;;;6.60;99.90;;;;;;4917225;29;20459;-83
2023/01/31 12:25:14;;;;;;;20.60;5.90;;;6.60;99.90;;;;;;4881009;29;20063;-83
2023/01/31 12:28:22;;;;;;;21.30;5.30;;;6.70;99.90;;;;;;4900767;29;20044;-83
2023/01/31 12:30:56;;;;;;;20.10;5.40;;;6.80;99.90;;;;;;4917782;29;20048;-82
2023/01/31 12:33:51;;;;;;;;;;;6.80;99.90;;;;;;4885968;29;20044;-83
2023/01/31 12:36:24;;;;;;;;;;;6.90;99.90;;;;;;4871200;29;19924;-83
2023/01/31 12:39:12;;;;;;;20.33;5.53;;;6.90;99.90;;;;;;4901806;29;19924;-83
2023/01/31 12:41:54;;;;;;;18.60;4.67;;;8.30;99.90;;;;;;4900324;29;20115;-83
2023/01/31 12:44:26;;;;;;;16.03;5.10;;;6.90;99.90;;;;;;4921376;29;20527;-82
2023/01/31 12:47:21;;;;;;;18.57;5.13;;;7.00;99.90;;;;;;4901375;29;20044;-82
2023/01/31 12:50:12;;;;;;;20.17;4.53;;;7.00;99.90;;;;;;4901312;29;20078;-83
2023/01/31 12:52:46;;;;;;;18.80;4.83;;;7.10;99.90;;;;;;4901282;29;20091;-83
2023/01/31 12:55:42;;;;;;;21.83;4.63;;;7.10;99.90;;;;;;4918100;29;20119;-83
2023/01/31 12:58:45;;;;;;;20.63;4.27;;;7.20;99.90;;;;;;4900771;29;20055;-83
2023/01/31 13:01:31;;;;;;;22.00;4.60;;;7.30;99.90;;;;;;4899814;29;20493;-83
2023/01/31 13:07:45;;;;;;;19.70;4.83;;;7.20;99.90;;;;;;4917911;29;20056;-83
2023/01/31 13:10:27;;;;;;;17.97;4.20;;;7.30;99.90;;;;;;4900088;29;20048;-83
2023/01/31 13:12:54;;;;;;;15.53;4.40;;;7.30;99.90;;;;;;4900798;29;20051;-83
2023/01/31 13:15:47;;;;;;;17.37;4.33;;;7.30;99.90;;;;;;4915839;23;20143;-83
2023/01/31 13:18:14;;;;;;;16.13;4.17;;;7.30;99.90;;;;;;4900804;29;20056;-83
2023/01/31 13:20:53;;;;;;;14.93;4.37;;;7.40;99.90;;;;;;4918211;29;20046;-83
2023/01/31 13:23:30;;;;;;;15.93;3.50;;;7.40;99.90;;;;;;4899805;29;20118;-82
2023/01/31 13:26:21;;;;;;;18.97;4.30;;;7.40;99.90;;;;;;4900419;29;20058;-82
2023/01/31 13:28:53;;;;;;;17.57;4.20;;;8.10;99.90;;;;;;4917067;29;20051;-82
2023/01/31 13:31:46;;;;;;;17.27;4.33;;;7.50;99.90;;;;;;4899741;29;20056;-82
2023/01/31 13:34:21;;;;;;;15.87;3.53;;;7.60;99.90;;;;;;4900827;29;20067;-82
2023/01/31 13:36:52;;;;;;;15.20;3.77;;;7.60;99.90;;;;;;4916864;29;20051;-82
2023/01/31 13:39:28;;;;;;;20.23;4.20;;;7.80;99.90;;;;;;4917889;29;20044;-82
2023/01/31 13:41:54;;;;;;;18.50;4.60;;;7.90;99.90;;;;;;4918862;29;20145;-83
2023/01/31 13:44:19;;;;;;;13.97;4.07;;;8.00;99.90;;;;;;4923969;29;20067;-81
2023/01/31 13:46:55;;;;;;;14.73;3.90;;;9.30;99.90;;;;;;4903315;29;20056;-81
2023/01/31 13:49:42;;;;;;;18.93;3.90;;;8.10;99.90;;;;;;4897630;29;20089;-82
2023/01/31 13:52:31;;;;;;;16.43;3.70;;;8.10;99.90;;;;;;4881383;29;20098;-82
2023/01/31 13:55:07;;;;;;;17.13;4.20;;;8.10;99.90;;;;;;4898432;29;20045;-83
2023/01/31 13:57:44;;;;;;;18.13;3.97;;;8.20;99.90;;;;;;4896113;29;20040;-82
2023/01/31 14:00:13;;;;;;;13.70;3.63;;;9.10;99.90;;;;;;4915004;29;20103;-82
2023/01/31 14:02:38;;;;;;;17.87;3.93;;;8.20;99.90;;;;;;4899655;29;20051;-83
2023/01/31 14:05:48;;;;;;;17.33;3.50;;;8.20;99.90;;;;;;4898370;29;20158;-83
2023/01/31 14:08:52;;;;;;;16.03;3.90;;;8.20;99.90;;;;;;4917025;29;20139;-83
2023/01/31 14:11:20;;;;;;;13.48;3.63;;;8.20;99.90;;;;;;4897114;29;20090;-83
2023/01/31 14:13:48;;;;;;;14.23;3.50;;;8.20;99.90;;;;;;4900691;29;20060;-83
2023/01/31 14:16:35;;;;;;;12.27;3.60;;;8.20;99.90;;;;;;4897230;29;20473;-82
2023/01/31 14:19:21;;;;;;;18.90;4.40;;;8.30;99.90;;;;;;4901011;29;20055;-83
2023/01/31 14:21:56;;;;;;;13.87;3.90;;;8.20;99.90;;;;;;4884299;29;20045;-85
2023/01/31 14:24:55;;;;;;;12.33;2.80;;;8.60;99.90;;;;;;4885298;29;20048;-83
2023/01/31 14:27:25;;;;;;;13.93;3.37;;;8.20;99.90;;;;;;4896259;29;20509;-83
2023/01/31 14:30:05;;;;;;;15.60;3.50;;;8.20;99.90;;;;;;4897998;29;20048;-83
2023/01/31 14:32:43;;;;;;;15.80;3.43;;;8.30;99.90;;;;;;4880323;29;20112;-83
2023/01/31 14:35:12;;;;;;;14.43;3.13;;;8.30;99.90;;;;;;4880472;29;20508;-83